Meherrin, Virginia
Current Conditions -  °F | °C
As of 11:55 AM on Saturday 22 Nov 2014 (Local Time) from KW31 Reporting Station
Clear Clear  
Wind Chill: 41°   Ceiling: Unl
Heat Index: 46°   Visibility: 10mi
Dew Point: 16°   Wind: 8mph
Humidity: 31%   Direction: 200°SSW
Pressure: 30.47"   Gusts: NA
Location:  37.1°N, 78.37°W
Report Text: KW31 221655Z AUTO 20007KT 10SM CLR 08/M09 A3047 RMK AO1 T00751088
Loading
Personal Weather Stations






























Interactive Weather Map New forecast layout! Learn more

10-Day Weather Forecast

Advertisements
Track Severe Weather on mobile